createdAt,value
2018-07-23T00:00:53.364Z,1028.07
2018-07-23T00:01:53.377Z,1028.02
2018-07-23T00:02:53.370Z,1028
2018-07-23T00:03:53.356Z,1028.02
2018-07-23T00:04:53.353Z,1028.03
2018-07-23T00:05:53.351Z,1028
2018-07-23T00:06:53.348Z,1028.02
2018-07-23T00:07:53.350Z,1028.02
2018-07-23T00:08:53.342Z,1028.01
2018-07-23T00:09:53.339Z,1028
2018-07-23T00:10:53.338Z,1027.99
2018-07-23T00:11:53.334Z,1027.98
2018-07-23T00:12:53.331Z,1027.96
2018-07-23T00:13:53.329Z,1027.95
2018-07-23T00:14:53.324Z,1027.95
2018-07-23T00:15:53.323Z,1027.94
2018-07-23T00:16:53.320Z,1027.93
2018-07-23T00:17:53.318Z,1027.94
2018-07-23T00:18:53.314Z,1027.94
2018-07-23T00:19:53.312Z,1027.93
2018-07-23T00:20:53.309Z,1027.93
2018-07-23T00:21:53.307Z,1027.91
2018-07-23T00:22:53.307Z,1027.88
2018-07-23T00:23:53.301Z,1027.89
2018-07-23T00:24:53.298Z,1027.82
2018-07-23T00:25:53.338Z,1027.84
2018-07-23T00:26:53.295Z,1027.81
2018-07-23T00:28:53.289Z,1027.81
2018-07-23T00:29:53.285Z,1027.81
2018-07-23T00:30:53.285Z,1027.79
2018-07-23T00:31:53.280Z,1027.77
2018-07-23T00:32:53.278Z,1027.8
2018-07-23T00:33:53.274Z,1027.78
2018-07-23T00:35:53.269Z,1027.76
2018-07-23T00:36:53.266Z,1027.76
2018-07-23T00:37:53.263Z,1027.78
2018-07-23T00:38:53.261Z,1027.77
2018-07-23T00:39:53.261Z,1027.76
2018-07-23T00:40:53.255Z,1027.82
2018-07-23T00:41:53.253Z,1027.82
2018-07-23T00:42:53.253Z,1027.81
2018-07-23T00:43:53.248Z,1027.79
2018-07-23T00:44:53.245Z,1027.81
2018-07-23T00:45:53.242Z,1027.8
2018-07-23T00:46:53.240Z,1027.82
2018-07-23T00:47:53.236Z,1027.8
2018-07-23T00:48:53.234Z,1027.8
2018-07-23T00:49:53.232Z,1027.82
2018-07-23T00:50:53.230Z,1027.81
2018-07-23T00:51:53.226Z,1027.82
2018-07-23T00:52:53.223Z,1027.82
2018-07-23T00:53:53.222Z,1027.83
2018-07-23T00:54:53.222Z,1027.81
2018-07-23T00:55:53.216Z,1027.79
2018-07-23T00:56:53.220Z,1027.79
2018-07-23T00:57:53.211Z,1027.75
2018-07-23T00:58:53.207Z,1027.77
2018-07-23T00:59:53.205Z,1027.77
2018-07-23T01:00:53.203Z,1027.82
2018-07-23T01:01:53.200Z,1027.81
2018-07-23T01:02:53.197Z,1027.8
2018-07-23T01:03:53.194Z,1027.8
2018-07-23T01:04:53.194Z,1027.81
2018-07-23T01:05:53.190Z,1027.81
2018-07-23T01:06:53.188Z,1027.79
2018-07-23T01:07:53.185Z,1027.84
2018-07-23T01:08:53.184Z,1027.83
2018-07-23T01:09:53.179Z,1027.82
2018-07-23T01:10:53.177Z,1027.79
2018-07-23T01:11:53.176Z,1027.85
2018-07-23T01:12:53.172Z,1027.82
2018-07-23T01:13:53.168Z,1027.8
2018-07-23T01:14:53.166Z,1027.8
2018-07-23T01:15:53.163Z,1027.83
2018-07-23T01:16:53.161Z,1027.84
2018-07-23T01:17:53.158Z,1027.82
2018-07-23T01:18:53.156Z,1027.82
2018-07-23T01:19:53.155Z,1027.83
2018-07-23T01:20:53.149Z,1027.84
2018-07-23T01:21:53.147Z,1027.86
2018-07-23T01:22:53.145Z,1027.83
2018-07-23T01:23:53.143Z,1027.86
2018-07-23T01:24:53.143Z,1027.85
2018-07-23T01:25:53.136Z,1027.89
2018-07-23T01:26:53.134Z,1027.93
2018-07-23T01:27:53.134Z,1027.92
2018-07-23T01:28:53.128Z,1027.92
2018-07-23T01:29:53.127Z,1027.94
2018-07-23T01:30:53.124Z,1027.98
2018-07-23T01:31:53.120Z,1027.94
2018-07-23T01:32:53.118Z,1027.94
2018-07-23T01:33:53.115Z,1027.96
2018-07-23T01:34:53.113Z,1027.97
2018-07-23T01:35:53.110Z,1027.99
2018-07-23T01:36:53.108Z,1027.98
2018-07-23T01:37:53.105Z,1027.98
2018-07-23T01:38:53.102Z,1027.98
2018-07-23T01:39:53.104Z,1028.01
2018-07-23T01:40:53.098Z,1027.98
2018-07-23T01:41:53.094Z,1027.98
2018-07-23T01:42:53.093Z,1028.03
2018-07-23T01:43:53.090Z,1028.03
2018-07-23T01:44:53.087Z,1028.03
2018-07-23T01:45:53.084Z,1028.1
2018-07-23T01:46:53.081Z,1028.08
2018-07-23T01:47:53.078Z,1028.09
2018-07-23T01:48:53.077Z,1028.07
2018-07-23T01:49:53.072Z,1028.09
2018-07-23T01:50:53.070Z,1028.08
2018-07-23T01:51:53.068Z,1028.06
2018-07-23T01:52:53.065Z,1028.09
2018-07-23T01:53:53.061Z,1028.05
2018-07-23T01:54:53.060Z,1028.04
2018-07-23T01:55:53.057Z,1028.04
2018-07-23T01:56:53.054Z,1028.07
2018-07-23T01:57:53.051Z,1028.1
2018-07-23T01:58:53.049Z,1028.11
2018-07-23T01:59:53.046Z,1028.11
2018-07-23T02:00:53.042Z,1028.11
2018-07-23T02:01:53.040Z,1028.1
2018-07-23T02:02:53.037Z,1028.08
2018-07-23T02:03:53.039Z,1028.1
2018-07-23T02:04:53.035Z,1028.09
2018-07-23T02:05:53.028Z,1028.09
2018-07-23T02:06:53.030Z,1028.1
2018-07-23T02:07:53.026Z,1028.15
2018-07-23T02:08:53.019Z,1028.13
2018-07-23T02:09:53.017Z,1028.15
2018-07-23T02:10:53.013Z,1028.19
2018-07-23T02:11:53.011Z,1028.19
2018-07-23T02:12:53.009Z,1028.19
2018-07-23T02:13:53.006Z,1028.23
2018-07-23T02:14:53.002Z,1028.27
2018-07-23T02:15:52.999Z,1028.26
2018-07-23T02:16:52.996Z,1028.27
2018-07-23T02:17:52.994Z,1028.34
2018-07-23T02:18:52.991Z,1028.35
2018-07-23T02:19:52.987Z,1028.38
2018-07-23T02:20:52.985Z,1028.39
2018-07-23T02:21:52.983Z,1028.47
2018-07-23T02:22:52.979Z,1028.46
2018-07-23T02:23:52.975Z,1028.52
2018-07-23T02:24:52.973Z,1028.52
2018-07-23T02:25:52.972Z,1028.54
2018-07-23T02:26:52.966Z,1028.56
2018-07-23T02:27:52.964Z,1028.56
2018-07-23T02:28:52.960Z,1028.6
2018-07-23T02:29:52.958Z,1028.6
2018-07-23T02:30:52.958Z,1028.62
2018-07-23T02:31:52.951Z,1028.65
2018-07-23T02:32:52.949Z,1028.62
2018-07-23T02:33:52.946Z,1028.68
2018-07-23T02:34:52.944Z,1028.74
2018-07-23T02:35:52.939Z,1028.69
2018-07-23T02:36:52.937Z,1028.71
2018-07-23T02:37:52.932Z,1028.73
2018-07-23T02:38:52.930Z,1028.71
2018-07-23T02:39:52.927Z,1028.72
2018-07-23T02:40:52.924Z,1028.77
2018-07-23T02:41:52.921Z,1028.77
2018-07-23T02:42:52.919Z,1028.76
2018-07-23T02:43:52.915Z,1028.78
2018-07-23T02:44:52.911Z,1028.77
2018-07-23T02:45:52.908Z,1028.79
2018-07-23T02:46:52.904Z,1028.85
2018-07-23T02:47:52.901Z,1028.86
2018-07-23T02:48:52.897Z,1028.86
2018-07-23T02:49:52.896Z,1028.87
2018-07-23T02:50:52.891Z,1028.88
2018-07-23T02:51:52.887Z,1028.92
2018-07-23T02:52:52.884Z,1028.87
2018-07-23T02:53:52.881Z,1028.93
2018-07-23T02:54:52.878Z,1028.91
2018-07-23T02:55:52.875Z,1028.91
2018-07-23T02:56:52.871Z,1028.9
2018-07-23T02:57:52.867Z,1028.94
2018-07-23T02:58:52.864Z,1028.97
2018-07-23T02:59:52.860Z,1028.93
2018-07-23T03:00:52.857Z,1028.96
2018-07-23T03:01:52.854Z,1028.95
2018-07-23T03:02:52.850Z,1028.97
2018-07-23T03:03:52.847Z,1029
2018-07-23T03:04:52.844Z,1028.99
2018-07-23T03:05:52.840Z,1029.04
2018-07-23T03:06:52.836Z,1029.03
2018-07-23T03:07:52.836Z,1029.03
2018-07-23T03:08:52.830Z,1029.09
2018-07-23T03:09:52.826Z,1029.07
2018-07-23T03:10:52.824Z,1029.07
2018-07-23T03:11:52.820Z,1029.07
2018-07-23T03:12:52.815Z,1029.08
2018-07-23T03:13:52.811Z,1029.06
2018-07-23T03:14:52.808Z,1029.07
2018-07-23T03:15:52.805Z,1029.07
2018-07-23T03:16:52.801Z,1029.08
2018-07-23T03:17:52.797Z,1029.1
2018-07-23T03:18:52.795Z,1029.05
2018-07-23T03:19:52.792Z,1029.08
2018-07-23T03:20:52.786Z,1029.05
2018-07-23T03:21:52.841Z,1029.04
2018-07-23T03:22:52.779Z,1029.04
2018-07-23T03:23:52.775Z,1029.01
2018-07-23T03:24:52.778Z,1029.02
2018-07-23T03:25:52.767Z,1029
2018-07-23T03:26:52.765Z,1028.96
2018-07-23T03:27:52.760Z,1028.99
2018-07-23T03:28:52.756Z,1028.97
2018-07-23T03:29:52.753Z,1028.95
2018-07-23T03:30:52.750Z,1028.97
2018-07-23T03:31:52.748Z,1028.97
2018-07-23T03:32:52.741Z,1029
2018-07-23T03:33:52.739Z,1028.98
2018-07-23T03:34:52.735Z,1028.98
2018-07-23T03:35:52.731Z,1028.94
2018-07-23T03:36:52.730Z,1028.93
2018-07-23T03:37:52.727Z,1028.91
2018-07-23T03:38:52.721Z,1028.92
2018-07-23T03:39:52.717Z,1028.91
2018-07-23T03:40:52.715Z,1028.94
2018-07-23T03:41:52.710Z,1028.95
2018-07-23T03:42:52.707Z,1028.98
2018-07-23T03:43:52.704Z,1028.96
2018-07-23T03:44:52.701Z,1028.96
2018-07-23T03:45:52.699Z,1028.94
2018-07-23T03:46:52.691Z,1028.95
2018-07-23T03:47:52.688Z,1028.95
2018-07-23T03:48:52.685Z,1028.9
2018-07-23T03:49:52.682Z,1028.91
2018-07-23T03:50:52.677Z,1028.85
2018-07-23T03:51:52.674Z,1028.84
2018-07-23T03:52:52.671Z,1028.77
2018-07-23T03:53:52.667Z,1028.71
2018-07-23T03:54:52.670Z,1028.69
2018-07-23T03:55:52.660Z,1028.64
2018-07-23T03:56:52.657Z,1028.54
2018-07-23T03:57:52.655Z,1028.47
2018-07-23T03:58:52.650Z,1028.44
2018-07-23T03:59:52.648Z,1028.4
2018-07-23T04:00:52.645Z,1028.33
2018-07-23T04:01:52.640Z,1028.27
2018-07-23T04:02:52.638Z,1028.26
2018-07-23T04:03:52.635Z,1028.21
2018-07-23T04:04:52.632Z,1028.09
2018-07-23T04:05:52.629Z,1028.04
2018-07-23T04:06:52.627Z,1027.93
2018-07-23T04:07:52.623Z,1027.85
2018-07-23T04:08:52.620Z,1027.77
2018-07-23T04:09:52.636Z,1027.74
2018-07-23T04:10:52.669Z,1027.65
2018-07-23T04:11:52.613Z,1027.57
2018-07-23T04:12:52.610Z,1027.49
2018-07-23T04:13:52.608Z,1027.4
2018-07-23T04:14:52.606Z,1027.3
2018-07-23T04:15:52.604Z,1027.28
2018-07-23T04:16:52.602Z,1027.19
2018-07-23T04:17:52.608Z,1027.13
2018-07-23T04:18:52.598Z,1027.11
2018-07-23T04:19:52.599Z,1027.03
2018-07-23T04:20:52.594Z,1026.97
2018-07-23T04:21:52.594Z,1026.83
2018-07-23T04:22:52.592Z,1026.77
2018-07-23T04:23:52.589Z,1026.74
2018-07-23T04:24:52.588Z,1026.57
2018-07-23T04:25:52.588Z,1026.56
2018-07-23T04:26:52.586Z,1026.51
2018-07-23T04:27:52.585Z,1026.45
2018-07-23T04:28:52.584Z,1026.42
2018-07-23T04:29:52.584Z,1026.41
2018-07-23T04:30:52.582Z,1026.3
2018-07-23T04:31:52.581Z,1026.23
2018-07-23T04:32:52.581Z,1026.26
2018-07-23T04:33:52.582Z,1026.18
2018-07-23T04:34:52.584Z,1026.13
2018-07-23T04:35:52.581Z,1026.07
2018-07-23T04:36:52.581Z,1026.01
2018-07-23T04:37:52.632Z,1025.98
2018-07-23T04:38:52.582Z,1025.95
2018-07-23T04:39:52.582Z,1025.84
2018-07-23T04:40:52.583Z,1025.76
2018-07-23T04:41:52.583Z,1025.69
2018-07-23T04:42:52.584Z,1025.61
2018-07-23T04:43:52.585Z,1025.57
2018-07-23T04:44:52.586Z,1025.51
2018-07-23T04:45:52.588Z,1025.42
2018-07-23T04:46:52.589Z,1025.34
2018-07-23T04:47:52.591Z,1025.29
2018-07-23T04:48:52.592Z,1025.26
2018-07-23T04:49:52.595Z,1025.16
2018-07-23T04:50:52.597Z,1025.13
2018-07-23T04:51:52.600Z,1025.08
2018-07-23T04:52:52.601Z,1025.04
2018-07-23T04:53:52.603Z,1025.01
2018-07-23T04:54:52.606Z,1024.89
2018-07-23T04:55:52.609Z,1024.87
2018-07-23T04:56:52.719Z,1024.81
2018-07-23T04:57:52.615Z,1024.74
2018-07-23T04:58:52.623Z,1024.66
2018-07-23T04:59:52.621Z,1024.61
2018-07-23T05:00:52.625Z,1024.53
2018-07-23T05:01:52.629Z,1024.52
2018-07-23T05:02:52.633Z,1024.48
2018-07-23T05:03:52.638Z,1024.42
2018-07-23T05:04:52.641Z,1024.34
2018-07-23T05:05:52.649Z,1024.31
2018-07-23T05:06:52.650Z,1024.22
2018-07-23T05:07:52.655Z,1024.2
2018-07-23T05:08:52.660Z,1024.15
2018-07-23T05:09:52.665Z,1024.08
2018-07-23T05:10:52.670Z,1024.06
2018-07-23T05:11:52.675Z,1023.97
2018-07-23T05:12:52.680Z,1023.88
2018-07-23T05:13:52.687Z,1023.79
2018-07-23T05:14:52.691Z,1023.72
2018-07-23T05:15:52.743Z,1023.67
2018-07-23T05:16:52.707Z,1023.6
2018-07-23T05:17:52.710Z,1023.54
2018-07-23T05:18:52.715Z,1023.5
2018-07-23T05:19:52.722Z,1023.48
2018-07-23T05:20:52.731Z,1023.43
2018-07-23T05:21:52.734Z,1023.39
2018-07-23T05:22:52.746Z,1023.36
2018-07-23T05:23:52.764Z,1023.36
2018-07-23T05:24:52.756Z,1023.34
2018-07-23T05:25:52.766Z,1023.32
2018-07-23T05:26:52.770Z,1023.3
2018-07-23T05:27:52.777Z,1023.27
2018-07-23T05:28:52.785Z,1023.2
2018-07-23T05:29:52.792Z,1023.2
2018-07-23T05:30:52.800Z,1023.18
2018-07-23T05:31:52.889Z,1023.11
2018-07-23T05:32:52.815Z,1023.11
2018-07-23T05:33:52.823Z,1023.09
2018-07-23T05:34:52.833Z,1023.06
2018-07-23T05:35:52.842Z,1023.08
2018-07-23T05:36:52.851Z,1023.07
2018-07-23T05:37:52.857Z,1023.01
2018-07-23T05:38:52.865Z,1022.96
2018-07-23T05:39:52.877Z,1022.88
2018-07-23T05:40:52.883Z,1022.82
2018-07-23T05:41:52.891Z,1022.71
2018-07-23T05:42:52.903Z,1022.76
2018-07-23T05:43:52.908Z,1022.76
2018-07-23T05:44:52.918Z,1022.67
2018-07-23T05:45:52.927Z,1022.63
2018-07-23T05:46:52.937Z,1022.51
2018-07-23T05:47:52.945Z,1022.35
2018-07-23T05:48:52.955Z,1022.23
2018-07-23T05:49:52.965Z,1022.13
2018-07-23T05:50:52.975Z,1022.01
2018-07-23T05:51:52.987Z,1021.88
2018-07-23T05:52:53.001Z,1021.84
2018-07-23T05:53:53.006Z,1021.84
2018-07-23T05:54:53.015Z,1021.83
2018-07-23T05:55:53.025Z,1021.79
2018-07-23T05:56:53.035Z,1021.71
2018-07-23T05:57:53.048Z,1021.65
2018-07-23T05:58:53.102Z,1021.7
2018-07-23T05:59:53.069Z,1021.74
2018-07-23T06:00:53.078Z,1021.79
2018-07-23T06:01:53.089Z,1021.79
2018-07-23T06:02:53.100Z,1021.69
2018-07-23T06:03:53.112Z,1021.73
2018-07-23T06:04:53.122Z,1021.76
2018-07-23T06:05:53.133Z,1021.75
2018-07-23T06:06:53.242Z,1021.76
2018-07-23T06:07:53.156Z,1021.84
2018-07-23T06:08:53.168Z,1021.87
2018-07-23T06:09:53.179Z,1021.9
2018-07-23T06:10:53.191Z,1021.87
2018-07-23T06:11:53.203Z,1021.78
2018-07-23T06:12:53.213Z,1021.64
2018-07-23T06:13:53.225Z,1021.61
2018-07-23T06:14:53.238Z,1021.56
2018-07-23T06:15:53.250Z,1021.52
2018-07-23T06:16:53.261Z,1021.45
2018-07-23T06:17:53.274Z,1021.45
2018-07-23T06:18:53.285Z,1021.38
2018-07-23T06:19:53.298Z,1021.41
2018-07-23T06:20:53.309Z,1021.35
2018-07-23T06:21:53.322Z,1021.32
2018-07-23T06:22:53.335Z,1021.28
2018-07-23T06:23:53.347Z,1021.25
2018-07-23T06:24:53.360Z,1021.21
2018-07-23T06:25:53.372Z,1021.04
2018-07-23T06:26:53.385Z,1020.85
2018-07-23T06:27:53.404Z,1020.64
2018-07-23T06:28:53.411Z,1020.59
2018-07-23T06:29:53.426Z,1020.52
2018-07-23T06:30:53.438Z,1020.47
2018-07-23T06:31:53.451Z,1020.44
2018-07-23T06:32:53.467Z,1020.44
2018-07-23T06:33:53.545Z,1020.43
2018-07-23T06:34:53.491Z,1020.31
2018-07-23T06:35:53.507Z,1020.34
2018-07-23T06:36:53.519Z,1020.25
2018-07-23T06:37:53.535Z,1020.15
2018-07-23T06:38:54.359Z,1020.04
2018-07-23T06:39:53.563Z,1019.91
2018-07-23T06:40:53.582Z,1019.81
2018-07-23T06:41:53.592Z,1019.74
2018-07-23T06:42:53.607Z,1019.6
2018-07-23T06:43:53.622Z,1019.53
2018-07-23T06:44:53.641Z,1019.54
2018-07-23T06:45:53.652Z,1019.53
2018-07-23T06:46:53.667Z,1019.47
2018-07-23T06:47:53.682Z,1019.45
2018-07-23T06:48:53.699Z,1019.38
2018-07-23T06:49:53.713Z,1019.32
2018-07-23T06:50:53.729Z,1019.31
2018-07-23T06:51:53.752Z,1019.25
2018-07-23T06:52:53.762Z,1019.19
2018-07-23T06:53:53.801Z,1019.2
2018-07-23T06:54:53.794Z,1019.14
2018-07-23T06:55:53.811Z,1019.08
2018-07-23T06:56:53.826Z,1019.07
2018-07-23T06:57:53.846Z,1019.01
2018-07-23T06:58:53.862Z,1018.93
2018-07-23T06:59:53.877Z,1018.9
2018-07-23T07:00:53.894Z,1018.9
2018-07-23T07:01:53.912Z,1018.9
2018-07-23T07:02:53.936Z,1018.85
2018-07-23T07:03:53.951Z,1018.87
2018-07-23T07:04:53.964Z,1018.94
2018-07-23T07:05:53.982Z,1018.94
2018-07-23T07:06:54.000Z,1018.92
2018-07-23T07:07:54.018Z,1018.89
2018-07-23T07:08:54.036Z,1018.89
2018-07-23T07:09:54.054Z,1018.91
2018-07-23T07:10:54.131Z,1018.84
2018-07-23T07:11:54.097Z,1018.91
2018-07-23T07:12:54.109Z,1019.05
2018-07-23T07:13:54.128Z,1019.36
2018-07-23T07:14:54.146Z,1019.61
2018-07-23T07:15:54.175Z,1019.79
2018-07-23T07:16:54.182Z,1019.85
2018-07-23T07:17:54.201Z,1019.91
2018-07-23T07:18:54.468Z,1019.85
2018-07-23T07:19:54.261Z,1019.89
2018-07-23T07:20:54.254Z,1020.02
2018-07-23T07:21:54.272Z,1020.07
2018-07-23T07:22:54.290Z,1020.14
2018-07-23T07:23:54.307Z,1020.19
2018-07-23T07:24:54.325Z,1020.24
2018-07-23T07:25:54.342Z,1020.3
2018-07-23T07:26:54.361Z,1020.26
2018-07-23T07:27:54.377Z,1020.21
2018-07-23T07:28:54.394Z,1020.17
2018-07-23T07:29:54.411Z,1020.2
2018-07-23T07:30:54.428Z,1020.16
2018-07-23T07:31:54.446Z,1020.21
2018-07-23T07:32:54.462Z,1020.25
2018-07-23T07:33:54.486Z,1020.36
2018-07-23T07:34:54.565Z,1020.35
2018-07-23T07:35:54.513Z,1020.38
2018-07-23T07:36:54.529Z,1020.35
2018-07-23T07:37:54.581Z,1020.34
2018-07-23T07:38:54.570Z,1020.43
2018-07-23T07:39:54.579Z,1020.46
2018-07-23T07:40:54.598Z,1020.47
2018-07-23T07:41:54.612Z,1020.47
2018-07-23T07:42:54.628Z,1020.56
2018-07-23T07:43:54.648Z,1020.56
2018-07-23T07:44:54.663Z,1020.49
2018-07-23T07:45:54.679Z,1020.39
2018-07-23T07:46:54.693Z,1020.35
2018-07-23T07:47:54.711Z,1020.34
2018-07-23T07:48:54.725Z,1020.34
2018-07-23T07:49:54.741Z,1020.42
2018-07-23T07:50:54.758Z,1020.39
2018-07-23T07:51:54.772Z,1020.38
2018-07-23T07:52:54.788Z,1020.39
2018-07-23T07:53:54.806Z,1020.36
2018-07-23T07:54:54.821Z,1020.29
2018-07-23T07:55:54.837Z,1020.27
2018-07-23T07:56:54.853Z,1020.21
2018-07-23T07:57:54.870Z,1020.16
2018-07-23T07:58:54.891Z,1020.16
2018-07-23T07:59:54.901Z,1020.09
2018-07-23T08:00:54.919Z,1020.15
2018-07-23T08:01:54.932Z,1020.19
2018-07-23T08:02:54.953Z,1020.16
2018-07-23T08:03:54.964Z,1020.15
2018-07-23T08:04:54.980Z,1020.09
2018-07-23T08:05:54.996Z,1020.08
2018-07-23T08:06:55.011Z,1020.01
2018-07-23T08:07:55.026Z,1019.96
2018-07-23T08:08:55.041Z,1020.03
2018-07-23T08:09:55.063Z,1020.05
2018-07-23T08:10:55.076Z,1020.01
2018-07-23T08:11:55.090Z,1020.01
2018-07-23T08:12:55.111Z,1020.03
2018-07-23T08:13:55.118Z,1020
2018-07-23T08:14:55.134Z,1019.98
2018-07-23T08:15:55.186Z,1020.04
2018-07-23T08:16:55.166Z,1019.98
2018-07-23T08:17:55.231Z,1019.99
2018-07-23T08:18:55.195Z,1019.95
2018-07-23T08:19:55.231Z,1019.93
2018-07-23T08:20:55.225Z,1019.91
2018-07-23T08:21:55.241Z,1019.96
2018-07-23T08:22:55.256Z,1019.99
2018-07-23T08:23:55.271Z,1019.91
2018-07-23T08:24:55.289Z,1019.89
2018-07-23T08:25:55.301Z,1019.85
2018-07-23T08:26:55.317Z,1019.86
2018-07-23T08:27:55.373Z,1019.84
2018-07-23T08:28:55.346Z,1019.82
2018-07-23T08:29:55.361Z,1019.85
2018-07-23T08:30:55.377Z,1019.76
2018-07-23T08:31:55.507Z,1019.79
2018-07-23T08:32:55.409Z,1019.76
2018-07-23T08:33:55.422Z,1019.89
2018-07-23T08:34:55.438Z,1020.03
2018-07-23T08:35:55.451Z,1020.14
2018-07-23T08:36:55.467Z,1020.19
2018-07-23T08:37:55.482Z,1020.12
2018-07-23T08:38:55.498Z,1020.1
2018-07-23T08:39:55.510Z,1020.11
2018-07-23T08:40:55.571Z,1020.11
2018-07-23T08:41:55.541Z,1020.18
2018-07-23T08:42:55.604Z,1020.17
2018-07-23T08:43:55.569Z,1020.21
2018-07-23T08:44:55.627Z,1020.19
2018-07-23T08:45:55.599Z,1020.18
2018-07-23T08:46:55.613Z,1020.21
2018-07-23T08:47:55.634Z,1020.23
2018-07-23T08:48:55.643Z,1020.25
2018-07-23T08:49:55.657Z,1020.21
2018-07-23T08:50:55.671Z,1020.26
2018-07-23T08:51:55.690Z,1020.22
2018-07-23T08:52:55.700Z,1020.36
2018-07-23T08:53:55.714Z,1020.59
2018-07-23T08:54:55.728Z,1021.22
2018-07-23T08:55:55.742Z,1021.95
2018-07-23T08:56:55.760Z,1022.64
2018-07-23T08:57:55.772Z,1023.19
2018-07-23T08:58:55.783Z,1023.74
2018-07-23T08:59:55.812Z,1024.24
2018-07-23T09:00:55.810Z,1024.72
2018-07-23T09:01:55.824Z,1024.96
2018-07-23T09:02:55.835Z,1025.31
2018-07-23T09:03:55.850Z,1025.6
2018-07-23T09:04:55.858Z,1025.89
2018-07-23T09:05:55.870Z,1026.09
2018-07-23T09:06:55.879Z,1026.27
2018-07-23T09:07:55.889Z,1026.45
2018-07-23T09:08:55.908Z,1026.53
2018-07-23T09:09:55.908Z,1026.68
2018-07-23T09:10:55.918Z,1026.86
2018-07-23T09:11:55.927Z,1026.94
2018-07-23T09:12:55.935Z,1027
2018-07-23T09:13:55.943Z,1027.06
2018-07-23T09:14:55.952Z,1027.14
2018-07-23T09:15:55.959Z,1027.16
2018-07-23T09:16:55.968Z,1027.26
2018-07-23T09:17:55.975Z,1027.32
2018-07-23T09:18:55.982Z,1027.34
2018-07-23T09:19:55.988Z,1027.35
2018-07-23T09:20:55.998Z,1027.42
2018-07-23T09:21:56.002Z,1027.5
2018-07-23T09:22:56.258Z,1027.49
2018-07-23T09:23:56.046Z,1027.55
2018-07-23T09:24:56.020Z,1027.61
2018-07-23T09:25:56.029Z,1027.7
2018-07-23T09:26:56.034Z,1027.66
2018-07-23T09:27:56.037Z,1027.7
2018-07-23T09:28:56.059Z,1027.81
2018-07-23T09:29:56.050Z,1027.8
2018-07-23T09:30:56.078Z,1027.8
2018-07-23T09:31:56.260Z,1027.82
2018-07-23T09:32:56.065Z,1027.83
2018-07-23T09:33:56.067Z,1027.75
2018-07-23T09:34:56.071Z,1027.82
2018-07-23T09:35:56.076Z,1027.85
2018-07-23T09:36:56.098Z,1027.82
2018-07-23T09:37:56.085Z,1027.82
2018-07-23T09:38:56.089Z,1027.87
2018-07-23T09:39:56.097Z,1027.83
2018-07-23T09:40:56.105Z,1027.84
2018-07-23T09:41:56.102Z,1027.87
2018-07-23T09:42:56.106Z,1027.88
2018-07-23T09:43:56.113Z,1027.91
2018-07-23T09:44:56.117Z,1027.84
2018-07-23T09:45:56.117Z,1027.86
2018-07-23T09:46:56.121Z,1027.83
2018-07-23T09:47:56.127Z,1027.85
2018-07-23T09:48:56.128Z,1027.82
2018-07-23T09:49:56.132Z,1027.86
2018-07-23T09:50:56.135Z,1027.87
2018-07-23T09:51:56.139Z,1027.89
2018-07-23T09:52:56.146Z,1027.91
2018-07-23T09:53:56.146Z,1027.85
2018-07-23T09:54:56.151Z,1027.89
2018-07-23T09:55:56.152Z,1027.94
2018-07-23T09:56:56.161Z,1027.96
2018-07-23T09:57:56.160Z,1027.97
2018-07-23T09:58:56.164Z,1027.91
2018-07-23T09:59:56.165Z,1027.9
2018-07-23T10:00:56.169Z,1027.83
2018-07-23T10:01:56.174Z,1027.84
2018-07-23T10:02:56.224Z,1027.73
2018-07-23T10:03:56.179Z,1027.84
2018-07-23T10:04:56.185Z,1027.78
2018-07-23T10:05:56.188Z,1027.83
2018-07-23T10:06:56.188Z,1027.86
2018-07-23T10:07:56.191Z,1027.94
2018-07-23T10:08:56.195Z,1027.89
2018-07-23T10:09:56.200Z,1027.94
2018-07-23T10:10:56.213Z,1027.89
2018-07-23T10:11:56.203Z,1027.88
2018-07-23T10:12:56.207Z,1027.85
2018-07-23T10:13:56.211Z,1027.76
2018-07-23T10:14:56.213Z,1027.81
2018-07-23T10:15:56.216Z,1027.77
2018-07-23T10:16:56.220Z,1027.77
2018-07-23T10:17:56.221Z,1027.73
2018-07-23T10:18:56.224Z,1027.59
2018-07-23T10:19:56.227Z,1027.69
2018-07-23T10:20:56.231Z,1027.72
2018-07-23T10:21:56.233Z,1027.69
2018-07-23T10:22:56.238Z,1027.71
2018-07-23T10:23:56.240Z,1027.72
2018-07-23T10:24:56.247Z,1027.68
2018-07-23T10:25:56.251Z,1027.74
2018-07-23T10:26:56.248Z,1027.79
2018-07-23T10:27:56.252Z,1027.74
2018-07-23T10:28:56.254Z,1027.77
2018-07-23T10:29:56.258Z,1027.76
2018-07-23T10:30:56.261Z,1027.75
2018-07-23T10:31:56.275Z,1027.68
2018-07-23T10:32:56.267Z,1027.7
2018-07-23T10:33:56.270Z,1027.81
2018-07-23T10:34:56.273Z,1027.77
2018-07-23T10:35:56.279Z,1027.69
2018-07-23T10:36:56.280Z,1027.7
2018-07-23T10:37:56.283Z,1027.72
2018-07-23T10:38:56.286Z,1027.74
2018-07-23T10:39:56.288Z,1027.68
2018-07-23T10:40:56.291Z,1027.68
2018-07-23T10:41:56.294Z,1027.66
2018-07-23T10:42:56.298Z,1027.6
2018-07-23T10:43:56.300Z,1027.54
2018-07-23T10:44:56.303Z,1027.64
2018-07-23T10:45:56.306Z,1027.65
2018-07-23T10:46:56.324Z,1027.59
2018-07-23T10:47:56.312Z,1027.64
2018-07-23T10:48:56.317Z,1027.57
2018-07-23T10:49:56.319Z,1027.6
2018-07-23T10:50:56.374Z,1027.61
2018-07-23T10:51:56.323Z,1027.66
2018-07-23T10:52:56.326Z,1027.59
2018-07-23T10:53:56.379Z,1027.58
2018-07-23T10:54:56.332Z,1027.53
2018-07-23T10:55:56.335Z,1027.57
2018-07-23T10:56:56.339Z,1027.57
2018-07-23T10:57:56.341Z,1027.57
2018-07-23T10:58:56.344Z,1027.54
2018-07-23T10:59:56.347Z,1027.45
2018-07-23T11:00:56.355Z,1027.49
2018-07-23T11:01:56.352Z,1027.52
2018-07-23T11:02:56.360Z,1027.48
2018-07-23T11:03:56.358Z,1027.47
2018-07-23T11:04:56.362Z,1027.44
2018-07-23T11:05:56.364Z,1027.44
2018-07-23T11:06:56.368Z,1027.46
2018-07-23T11:07:56.370Z,1027.48
2018-07-23T11:08:56.373Z,1027.49
2018-07-23T11:09:56.376Z,1027.5
2018-07-23T11:10:56.379Z,1027.56
2018-07-23T11:11:56.384Z,1027.53
2018-07-23T11:12:56.383Z,1027.52
2018-07-23T11:13:56.386Z,1027.52
2018-07-23T11:14:56.390Z,1027.55
2018-07-23T11:15:56.392Z,1027.51
2018-07-23T11:16:56.394Z,1027.35
2018-07-23T11:17:56.402Z,1027.43
2018-07-23T11:18:56.401Z,1027.45
2018-07-23T11:19:56.402Z,1027.35
2018-07-23T11:20:56.406Z,1027.44
2018-07-23T11:21:56.418Z,1027.47
2018-07-23T11:22:56.412Z,1027.43
2018-07-23T11:23:56.464Z,1027.43
2018-07-23T11:24:56.418Z,1027.33
2018-07-23T11:25:56.420Z,1027.29
2018-07-23T11:26:56.423Z,1027.35
2018-07-23T11:27:56.425Z,1027.38
2018-07-23T11:28:56.428Z,1027.27
2018-07-23T11:29:56.432Z,1027.37
2018-07-23T11:30:56.435Z,1027.36
2018-07-23T11:31:56.458Z,1027.37
2018-07-23T11:32:56.440Z,1027.33
2018-07-23T11:33:56.445Z,1027.26
2018-07-23T11:34:56.445Z,1027.22
2018-07-23T11:35:56.448Z,1027.31
2018-07-23T11:36:56.450Z,1027.33
2018-07-23T11:37:56.455Z,1027.32
2018-07-23T11:38:56.456Z,1027.36
2018-07-23T11:39:56.462Z,1027.35
2018-07-23T11:40:56.464Z,1027.39
2018-07-23T11:41:56.466Z,1027.43
2018-07-23T11:42:56.467Z,1027.43
2018-07-23T11:43:56.469Z,1027.37
2018-07-23T11:44:56.472Z,1027.39
2018-07-23T11:45:56.474Z,1027.45
2018-07-23T11:46:56.479Z,1027.41
2018-07-23T11:47:56.480Z,1027.41
2018-07-23T11:48:56.483Z,1027.38
2018-07-23T11:49:56.485Z,1027.38
2018-07-23T11:50:56.488Z,1027.33
2018-07-23T11:51:56.490Z,1027.3
2018-07-23T11:52:56.492Z,1027.28
2018-07-23T11:53:56.495Z,1027.25
2018-07-23T11:54:56.499Z,1027.23
2018-07-23T11:55:56.501Z,1027.19
2018-07-23T11:56:56.580Z,1027.2
2018-07-23T11:57:56.506Z,1027.13
2018-07-23T11:58:56.518Z,1027.11
2018-07-23T11:59:56.511Z,1027.13
2018-07-23T12:00:56.514Z,1027.14
2018-07-23T12:01:56.517Z,1027.17
2018-07-23T12:02:56.519Z,1027.21
2018-07-23T12:03:56.521Z,1027.13
2018-07-23T12:04:56.527Z,1027.16
2018-07-23T12:05:56.527Z,1027.17
2018-07-23T12:06:56.531Z,1027.12
2018-07-23T12:07:56.533Z,1027.12
2018-07-23T12:08:56.535Z,1027.16
2018-07-23T12:09:56.542Z,1027.12
2018-07-23T12:10:56.541Z,1027.12